createdAt,value
2018-09-18T00:01:11.421Z,19.57
2018-09-18T00:03:43.757Z,19.58
2018-09-18T00:06:13.144Z,19.56
2018-09-18T00:08:43.282Z,19.55
2018-09-18T00:11:13.690Z,19.54
2018-09-18T00:13:43.138Z,19.53
2018-09-18T00:16:12.902Z,19.53
2018-09-18T00:18:46.155Z,19.53
2018-09-18T00:21:15.922Z,19.49
2018-09-18T00:23:45.491Z,19.48
2018-09-18T00:26:17.005Z,19.48
2018-09-18T00:28:48.520Z,19.47
2018-09-18T00:31:20.846Z,19.48
2018-09-18T00:33:50.198Z,19.49
2018-09-18T00:36:21.728Z,19.51
2018-09-18T00:38:51.028Z,19.53
2018-09-18T00:41:21.430Z,19.56
2018-09-18T00:43:50.749Z,19.59
2018-09-18T00:46:20.281Z,19.65
2018-09-18T00:48:49.838Z,19.70
2018-09-18T00:51:19.668Z,19.74
2018-09-18T00:53:48.913Z,19.80
2018-09-18T00:56:20.020Z,19.85
2018-09-18T00:58:49.163Z,19.89
2018-09-18T01:01:18.651Z,19.94
2018-09-18T01:03:47.870Z,20.03
2018-09-18T01:06:20.061Z,20.10
2018-09-18T01:08:50.502Z,20.19
2018-09-18T01:11:19.819Z,20.28
2018-09-18T01:13:48.955Z,20.37
2018-09-18T01:16:19.630Z,20.46
2018-09-18T01:18:50.741Z,20.54
2018-09-18T01:21:20.317Z,20.64
2018-09-18T01:23:50.092Z,20.74
2018-09-18T01:26:20.975Z,20.83
2018-09-18T01:28:52.753Z,20.91
2018-09-18T01:31:23.040Z,20.98
2018-09-18T01:33:52.525Z,21.06
2018-09-18T01:36:21.849Z,21.11
2018-09-18T01:38:50.956Z,21.12
2018-09-18T01:41:20.241Z,21.15
2018-09-18T01:43:50.712Z,21.16
2018-09-18T01:46:20.453Z,21.17
2018-09-18T01:48:52.630Z,21.20
2018-09-18T01:51:22.948Z,21.21
2018-09-18T01:53:52.174Z,21.24
2018-09-18T01:56:22.552Z,21.28
2018-09-18T01:58:51.893Z,21.34
2018-09-18T02:01:21.757Z,21.42
2018-09-18T02:03:50.943Z,21.50
2018-09-18T02:06:20.666Z,21.53
2018-09-18T02:08:50.132Z,21.57
2018-09-18T02:11:19.411Z,21.60
2018-09-18T02:13:50.024Z,21.61
2018-09-18T02:16:20.505Z,21.62
2018-09-18T02:18:50.595Z,21.62
2018-09-18T02:21:20.991Z,21.60
2018-09-18T02:23:50.631Z,21.59
2018-09-18T02:26:19.827Z,21.56
2018-09-18T02:28:49.052Z,21.55
2018-09-18T02:31:18.338Z,21.58
2018-09-18T02:33:47.549Z,21.64
2018-09-18T02:36:17.156Z,21.70
2018-09-18T02:38:46.733Z,21.75
2018-09-18T02:41:16.984Z,21.77
2018-09-18T02:43:46.695Z,21.81
2018-09-18T02:46:16.476Z,21.82
2018-09-18T02:48:46.105Z,21.80
2018-09-18T02:51:15.932Z,21.83
2018-09-18T02:53:46.441Z,21.82
2018-09-18T02:56:16.342Z,21.83
2018-09-18T02:58:45.720Z,21.83
2018-09-18T03:01:16.389Z,21.83
2018-09-18T03:03:46.902Z,21.84
2018-09-18T03:06:17.120Z,21.83
2018-09-18T03:08:46.812Z,21.81
2018-09-18T03:11:16.438Z,21.76
2018-09-18T03:18:43.083Z,21.27
2018-09-18T03:21:12.677Z,21.21
2018-09-18T03:23:41.900Z,21.18
2018-09-18T03:26:11.172Z,21.15
2018-09-18T03:28:42.798Z,21.13
2018-09-18T03:31:12.000Z,21.09
2018-09-18T03:33:41.742Z,21.06
2018-09-18T03:36:11.813Z,21.04
2018-09-18T03:38:42.902Z,20.99
2018-09-18T03:41:13.063Z,20.93
2018-09-18T03:43:43.419Z,20.89
2018-09-18T03:46:13.991Z,20.82
2018-09-18T03:48:43.888Z,20.80
2018-09-18T03:51:13.580Z,20.79
2018-09-18T03:53:44.469Z,20.74
2018-09-18T03:56:14.218Z,20.70
2018-09-18T03:58:45.264Z,20.68
2018-09-18T04:01:19.583Z,20.64
2018-09-18T04:03:49.424Z,20.63
2018-09-18T04:06:19.818Z,20.63
2018-09-18T04:08:50.216Z,20.62
2018-09-18T04:11:21.998Z,20.63
2018-09-18T04:13:52.534Z,20.61
2018-09-18T04:16:22.442Z,20.60
2018-09-18T04:18:51.702Z,20.61
2018-09-18T04:21:25.868Z,20.60
2018-09-18T04:23:55.239Z,20.59
2018-09-18T04:26:27.678Z,20.57
2018-09-18T04:28:57.480Z,20.55
2018-09-18T04:31:26.797Z,20.54
2018-09-18T04:33:59.084Z,20.54
2018-09-18T04:36:28.306Z,20.52
2018-09-18T04:38:58.828Z,20.52
2018-09-18T04:41:28.543Z,20.50
2018-09-18T04:44:00.028Z,20.48
2018-09-18T04:46:29.646Z,20.46
2018-09-18T04:49:01.526Z,20.45
2018-09-18T04:51:31.068Z,20.43
2018-09-18T04:54:02.954Z,20.42
2018-09-18T04:56:32.792Z,20.43
2018-09-18T04:59:04.488Z,20.43
2018-09-18T05:01:34.341Z,20.43
2018-09-18T05:04:03.780Z,20.42
2018-09-18T05:06:35.877Z,20.42
2018-09-18T05:09:09.594Z,20.45
2018-09-18T05:11:39.288Z,20.45
2018-09-18T05:14:09.416Z,20.46
2018-09-18T05:16:39.385Z,20.49
2018-09-18T05:19:08.928Z,20.48
2018-09-18T05:21:40.518Z,20.47
2018-09-18T05:24:11.046Z,20.47
2018-09-18T05:26:41.065Z,20.47
2018-09-18T05:29:12.164Z,20.50
2018-09-18T05:31:43.453Z,20.57
2018-09-18T05:34:13.982Z,20.69
2018-09-18T05:36:44.353Z,20.87
2018-09-18T05:39:16.537Z,21.11
2018-09-18T05:41:46.247Z,21.40
2018-09-18T05:44:16.062Z,21.73
2018-09-18T05:46:45.961Z,22.12
2018-09-18T05:54:08.843Z,23.36
2018-09-18T05:56:38.104Z,23.94
2018-09-18T05:59:08.876Z,24.58
2018-09-18T06:01:40.191Z,25.27
2018-09-18T06:04:11.064Z,25.96
2018-09-18T06:06:40.272Z,26.68
2018-09-18T06:09:14.127Z,27.38
2018-09-18T06:11:43.850Z,28.06
2018-09-18T06:14:13.273Z,28.73
2018-09-18T06:16:43.250Z,29.38
2018-09-18T06:19:19.645Z,30.01
2018-09-18T06:21:49.951Z,30.63
2018-09-18T06:24:21.645Z,31.22
2018-09-18T06:26:51.836Z,31.78
2018-09-18T06:29:21.253Z,32.30
2018-09-18T06:31:53.337Z,32.78
2018-09-18T06:34:22.522Z,33.24
2018-09-18T06:36:53.600Z,33.64
2018-09-18T06:39:23.301Z,33.98
2018-09-18T06:41:53.044Z,34.33
2018-09-18T06:44:22.786Z,34.73
2018-09-18T06:46:52.179Z,35.13
2018-09-18T06:49:21.645Z,35.57
2018-09-18T06:51:50.885Z,35.92
2018-09-18T06:54:20.472Z,36.33
2018-09-18T06:56:50.374Z,36.71
2018-09-18T06:59:20.219Z,37.08
2018-09-18T07:01:50.816Z,37.42
2018-09-18T07:04:20.813Z,37.64
2018-09-18T07:06:51.652Z,37.77
2018-09-18T07:09:21.285Z,37.74
2018-09-18T07:11:51.181Z,37.53
2018-09-18T07:14:21.058Z,37.23
2018-09-18T07:16:51.802Z,36.92
2018-09-18T07:19:21.426Z,36.67
2018-09-18T07:21:51.976Z,36.47
2018-09-18T07:24:21.487Z,36.35
2018-09-18T07:26:51.314Z,36.28
2018-09-18T07:29:21.798Z,36.15
2018-09-18T07:31:51.266Z,36.03
2018-09-18T07:34:21.051Z,35.97
2018-09-18T07:36:50.692Z,35.91
2018-09-18T07:39:20.504Z,35.86
2018-09-18T07:41:52.831Z,35.86
2018-09-18T07:44:22.750Z,35.88
2018-09-18T07:46:54.494Z,35.91
2018-09-18T07:49:23.726Z,35.94
2018-09-18T07:51:53.355Z,35.95
2018-09-18T07:54:22.695Z,35.91
2018-09-18T07:56:52.149Z,35.87
2018-09-18T07:59:22.440Z,35.84
2018-09-18T08:01:53.082Z,35.84
2018-09-18T08:04:22.651Z,35.96
2018-09-18T08:06:51.970Z,36.08
2018-09-18T08:09:22.160Z,36.20
2018-09-18T08:11:51.872Z,36.27
2018-09-18T08:14:23.050Z,36.23
2018-09-18T08:16:52.303Z,36.16
2018-09-18T08:19:22.258Z,36.15
2018-09-18T08:21:52.113Z,36.10
2018-09-18T08:24:21.987Z,36.11
2018-09-18T08:26:51.524Z,36.20
2018-09-18T08:29:22.090Z,36.38
2018-09-18T08:31:51.307Z,36.64
2018-09-18T08:34:21.111Z,36.98
2018-09-18T08:36:52.864Z,37.18
2018-09-18T08:39:22.151Z,37.15
2018-09-18T08:41:52.630Z,37.19
2018-09-18T08:44:22.138Z,37.30
2018-09-18T08:46:51.716Z,37.42
2018-09-18T08:49:23.128Z,37.59
2018-09-18T08:51:53.567Z,37.73
2018-09-18T08:54:24.265Z,37.86
2018-09-18T08:56:54.089Z,37.88
2018-09-18T08:59:23.414Z,37.82
2018-09-18T09:01:53.290Z,37.76
2018-09-18T09:04:22.647Z,37.86
2018-09-18T09:06:52.592Z,37.84
2018-09-18T09:09:22.718Z,37.70
2018-09-18T09:11:53.290Z,37.54
2018-09-18T09:14:23.030Z,37.40
2018-09-18T09:16:52.282Z,37.34
2018-09-18T09:19:21.600Z,37.35
2018-09-18T09:21:51.112Z,37.34
2018-09-18T09:24:21.444Z,37.25
2018-09-18T09:26:51.509Z,37.24
2018-09-18T09:29:20.807Z,37.21
2018-09-18T09:31:50.617Z,37.25
2018-09-18T09:34:20.021Z,37.34
2018-09-18T09:36:49.888Z,37.40
2018-09-18T09:39:20.075Z,37.58
2018-09-18T09:41:50.229Z,37.73
2018-09-18T09:44:19.442Z,37.76
2018-09-18T09:46:50.047Z,37.76
2018-09-18T09:49:19.803Z,37.70
2018-09-18T09:51:49.784Z,37.58
2018-09-18T09:54:20.637Z,37.34
2018-09-18T09:56:51.174Z,37.06
2018-09-18T09:59:21.769Z,36.84
2018-09-18T10:01:55.563Z,36.69
2018-09-18T10:04:26.022Z,36.55
2018-09-18T10:06:55.531Z,36.49
2018-09-18T10:09:25.442Z,36.48
2018-09-18T10:11:55.282Z,36.45
2018-09-18T10:14:25.268Z,36.42
2018-09-18T10:16:54.921Z,36.49
2018-09-18T10:19:25.248Z,36.60
2018-09-18T10:21:55.710Z,36.61
2018-09-18T10:24:25.833Z,36.56
2018-09-18T10:26:57.783Z,36.46
2018-09-18T10:29:28.804Z,36.46
2018-09-18T10:31:58.094Z,36.52
2018-09-18T10:34:27.806Z,36.54
2018-09-18T10:36:57.202Z,36.50
2018-09-18T10:39:26.860Z,36.50
2018-09-18T10:41:56.745Z,36.45
2018-09-18T10:44:26.291Z,36.41
2018-09-18T10:46:55.854Z,36.37
2018-09-18T10:49:25.955Z,36.41
2018-09-18T10:51:55.042Z,36.51
2018-09-18T10:54:24.560Z,36.63
2018-09-18T10:56:54.805Z,36.71
2018-09-18T10:59:25.325Z,36.78
2018-09-18T11:01:55.244Z,36.91
2018-09-18T11:04:25.258Z,36.99
2018-09-18T11:06:54.983Z,37.03
2018-09-18T11:09:25.532Z,37.08
2018-09-18T11:11:55.249Z,37.25
2018-09-18T11:14:25.162Z,37.40
2018-09-18T11:16:54.751Z,37.42
2018-09-18T11:19:24.256Z,37.44
2018-09-18T11:21:53.895Z,37.50
2018-09-18T11:24:25.862Z,37.48
2018-09-18T11:26:55.538Z,37.38
2018-09-18T11:29:26.817Z,37.23
2018-09-18T11:31:56.228Z,37.09
2018-09-18T11:34:25.272Z,37.11
2018-09-18T11:36:57.475Z,37.23
2018-09-18T11:39:27.002Z,37.39
2018-09-18T11:41:57.309Z,37.44
2018-09-18T11:44:27.149Z,37.41
2018-09-18T11:46:57.747Z,37.32
2018-09-18T11:49:29.743Z,37.15
2018-09-18T11:52:00.074Z,36.98
2018-09-18T11:54:29.874Z,36.86
2018-09-18T11:56:59.549Z,36.80
2018-09-18T11:59:30.184Z,36.71
2018-09-18T12:01:59.831Z,36.57
2018-09-18T12:04:30.439Z,36.39
2018-09-18T12:07:00.408Z,36.30
2018-09-18T12:09:30.632Z,36.30
2018-09-18T12:12:00.119Z,36.34
2018-09-18T12:14:29.590Z,36.36
2018-09-18T12:16:59.461Z,36.27
2018-09-18T12:19:28.823Z,36.20
2018-09-18T12:21:57.892Z,36.15
2018-09-18T12:24:26.940Z,36.12
2018-09-18T12:26:56.224Z,36.13
2018-09-18T12:29:25.398Z,36.08
2018-09-18T12:31:55.292Z,36.04
2018-09-18T12:34:24.881Z,36.01
2018-09-18T12:36:54.176Z,36.03
2018-09-18T12:39:24.383Z,36.02
2018-09-18T12:41:55.035Z,35.98
2018-09-18T12:44:24.681Z,35.98
2018-09-18T12:46:56.050Z,35.95
2018-09-18T12:49:26.305Z,35.87
2018-09-18T12:51:58.444Z,35.79
2018-09-18T12:54:28.989Z,35.77
2018-09-18T12:57:00.299Z,35.79
2018-09-18T12:59:30.386Z,35.79
2018-09-18T13:01:59.939Z,35.81
2018-09-18T13:04:29.843Z,35.85
2018-09-18T13:06:59.755Z,35.87
2018-09-18T13:09:31.432Z,35.92
2018-09-18T13:12:01.258Z,35.95
2018-09-18T13:14:31.695Z,35.98
2018-09-18T13:17:01.532Z,36.03
2018-09-18T13:19:31.842Z,36.04
2018-09-18T13:22:03.523Z,36.08
2018-09-18T13:24:33.748Z,36.11
2018-09-18T13:27:03.795Z,36.16
2018-09-18T13:29:33.076Z,36.19
2018-09-18T13:32:03.001Z,36.22
2018-09-18T13:34:33.517Z,36.21
2018-09-18T13:37:05.898Z,36.16
2018-09-18T13:39:35.512Z,36.12
2018-09-18T13:42:05.158Z,36.09
2018-09-18T13:44:34.451Z,36.00
2018-09-18T13:47:06.538Z,35.94
2018-09-18T13:49:37.339Z,35.81
2018-09-18T13:52:07.258Z,35.72
2018-09-18T13:54:36.839Z,35.61
2018-09-18T13:57:07.776Z,35.51
2018-09-18T13:59:37.585Z,35.42
2018-09-18T14:02:07.554Z,35.34
2018-09-18T14:04:37.731Z,35.28
2018-09-18T14:07:07.421Z,35.28
2018-09-18T14:09:37.809Z,35.27
2018-09-18T14:12:08.795Z,35.26
2018-09-18T14:14:40.245Z,35.20
2018-09-18T14:17:09.663Z,35.17
2018-09-18T14:19:40.318Z,35.15
2018-09-18T14:22:10.326Z,35.12
2018-09-18T14:24:40.547Z,35.09
2018-09-18T14:27:10.697Z,35.09
2018-09-18T14:29:41.921Z,35.11
2018-09-18T14:32:11.492Z,35.10
2018-09-18T14:34:41.961Z,35.04
2018-09-18T14:37:11.724Z,34.96
2018-09-18T14:39:41.772Z,34.95
2018-09-18T14:42:11.951Z,34.96
2018-09-18T14:44:42.178Z,34.93
2018-09-18T14:47:12.554Z,34.88
2018-09-18T14:49:42.214Z,34.77
2018-09-18T14:52:11.649Z,34.67
2018-09-18T14:54:41.906Z,34.58
2018-09-18T14:57:11.882Z,34.50
2018-09-18T14:59:42.329Z,34.44
2018-09-18T15:02:12.805Z,34.38
2018-09-18T15:04:42.581Z,34.25
2018-09-18T15:07:14.483Z,34.13
2018-09-18T15:09:44.672Z,34.01
2018-09-18T15:12:15.151Z,33.91
2018-09-18T15:14:45.760Z,33.85
2018-09-18T15:17:15.587Z,33.77
2018-09-18T15:19:47.340Z,33.70
2018-09-18T15:22:16.676Z,33.61
2018-09-18T15:24:48.332Z,33.56
2018-09-18T15:27:19.019Z,33.53
2018-09-18T15:29:49.640Z,33.49
2018-09-18T15:32:21.784Z,33.47
2018-09-18T15:34:51.741Z,33.43
2018-09-18T15:37:22.292Z,33.42
2018-09-18T15:39:52.354Z,33.40
2018-09-18T15:42:22.237Z,33.37
2018-09-18T15:44:52.417Z,33.31
2018-09-18T15:47:22.050Z,33.24
2018-09-18T15:49:51.939Z,33.15
2018-09-18T15:52:22.666Z,33.03
2018-09-18T15:54:52.917Z,32.93
2018-09-18T15:57:22.432Z,32.87
2018-09-18T15:59:51.837Z,32.83
2018-09-18T16:02:21.730Z,32.80
2018-09-18T16:04:51.189Z,32.77
2018-09-18T16:07:20.901Z,32.73
2018-09-18T16:09:50.471Z,32.67
2018-09-18T16:12:19.772Z,32.59
2018-09-18T16:14:49.581Z,32.51
2018-09-18T16:17:19.497Z,32.39
2018-09-18T16:19:51.959Z,32.31
2018-09-18T16:22:22.085Z,32.20
2018-09-18T16:24:52.045Z,32.12
2018-09-18T16:27:21.480Z,32.07
2018-09-18T16:29:51.819Z,32.00
2018-09-18T16:32:21.152Z,31.97
2018-09-18T16:34:51.418Z,31.94
2018-09-18T16:37:21.857Z,31.91
2018-09-18T16:39:54.015Z,31.87
2018-09-18T16:42:25.513Z,31.81
2018-09-18T16:44:55.050Z,31.76
2018-09-18T16:47:25.557Z,31.69
2018-09-18T16:49:54.898Z,31.62
2018-09-18T16:52:24.648Z,31.54
2018-09-18T16:54:56.758Z,31.46
2018-09-18T16:57:26.083Z,31.36
2018-09-18T16:59:55.791Z,31.28
2018-09-18T17:02:25.594Z,31.19
2018-09-18T17:04:58.967Z,31.12
2018-09-18T17:07:29.384Z,31.02
2018-09-18T17:10:01.347Z,30.91
2018-09-18T17:12:31.235Z,30.83
2018-09-18T17:15:01.107Z,30.73
2018-09-18T17:17:30.525Z,30.66
2018-09-18T17:20:00.540Z,30.61
2018-09-18T17:22:30.042Z,30.52
2018-09-18T17:24:59.895Z,30.44
2018-09-18T17:27:29.498Z,30.35
2018-09-18T17:30:01.597Z,30.25
2018-09-18T17:32:34.189Z,30.17
2018-09-18T17:35:09.018Z,30.06
2018-09-18T17:37:40.062Z,29.95
2018-09-18T17:40:10.160Z,29.84
2018-09-18T17:42:40.386Z,29.68
2018-09-18T17:45:10.392Z,29.56
2018-09-18T17:47:40.309Z,29.44
2018-09-18T17:50:11.874Z,29.33
2018-09-18T17:52:41.983Z,29.21
2018-09-18T17:55:12.343Z,29.09
2018-09-18T17:57:42.450Z,28.99
2018-09-18T18:00:13.086Z,28.90
2018-09-18T18:02:42.728Z,28.75
2018-09-18T18:05:13.426Z,28.67
2018-09-18T18:07:45.259Z,28.57
2018-09-18T18:10:15.563Z,28.47
2018-09-18T18:12:46.091Z,28.36
2018-09-18T18:15:18.156Z,28.26
2018-09-18T18:17:52.820Z,28.16
2018-09-18T18:20:24.626Z,28.07
2018-09-18T18:22:55.321Z,27.97
2018-09-18T18:25:26.681Z,27.87
2018-09-18T18:27:59.561Z,27.75
2018-09-18T18:30:30.381Z,27.67
2018-09-18T18:33:00.624Z,27.58
2018-09-18T18:35:30.647Z,27.49
2018-09-18T18:38:00.735Z,27.43
2018-09-18T18:40:32.212Z,27.36
2018-09-18T18:43:04.559Z,27.30
2018-09-18T18:45:34.887Z,27.22
2018-09-18T18:48:08.546Z,27.16
2018-09-18T18:50:41.945Z,27.12
2018-09-18T18:53:15.774Z,27.07
2018-09-18T18:55:47.183Z,27.03
2018-09-18T18:58:25.407Z,27.00
2018-09-18T19:00:57.579Z,26.96
2018-09-18T19:03:28.875Z,26.94
2018-09-18T19:06:04.631Z,26.90
2018-09-18T19:08:39.410Z,26.88
2018-09-18T19:11:12.535Z,26.85
2018-09-18T19:13:42.420Z,26.82
2018-09-18T19:16:13.153Z,26.76
2018-09-18T19:18:43.518Z,26.73
2018-09-18T19:21:20.142Z,26.65
2018-09-18T19:23:51.060Z,26.58
2018-09-18T19:26:20.885Z,26.52
2018-09-18T19:28:50.139Z,26.46
2018-09-18T19:31:20.476Z,26.40
2018-09-18T19:33:51.600Z,26.31
2018-09-18T19:36:21.985Z,26.25
2018-09-18T19:38:52.304Z,26.17
2018-09-18T19:41:22.252Z,26.10
2018-09-18T19:43:51.754Z,26.01
2018-09-18T19:46:22.539Z,25.92
2018-09-18T19:48:52.504Z,25.87
2018-09-18T19:51:23.317Z,25.79
2018-09-18T19:53:57.526Z,25.69
2018-09-18T19:56:26.877Z,25.62
2018-09-18T19:58:58.287Z,25.56
2018-09-18T20:01:28.045Z,25.47
2018-09-18T20:03:57.952Z,25.42
2018-09-18T20:06:28.372Z,25.34
2018-09-18T20:09:04.384Z,25.26
2018-09-18T20:11:35.042Z,25.19
2018-09-18T20:14:05.205Z,25.13
2018-09-18T20:16:39.809Z,25.05
2018-09-18T20:19:12.866Z,25.00
2018-09-18T20:21:48.943Z,24.94
2018-09-18T20:24:20.065Z,24.89
2018-09-18T20:26:51.293Z,24.85
2018-09-18T20:29:23.555Z,24.81
2018-09-18T20:31:53.808Z,24.77
2018-09-18T20:34:23.635Z,24.73
2018-09-18T20:41:55.473Z,24.36
2018-09-18T20:44:24.932Z,24.32
2018-09-18T20:46:54.364Z,24.30
2018-09-18T20:49:24.165Z,24.28
2018-09-18T20:51:54.856Z,24.26
2018-09-18T20:54:25.788Z,24.21
2018-09-18T20:56:58.369Z,24.19
2018-09-18T20:59:27.760Z,24.14
2018-09-18T21:01:58.513Z,24.09
2018-09-18T21:04:27.948Z,24.04
2018-09-18T21:06:57.140Z,24.00
2018-09-18T21:09:26.171Z,23.95
2018-09-18T21:11:55.234Z,23.91
2018-09-18T21:14:24.316Z,23.86
2018-09-18T21:16:55.153Z,23.81
2018-09-18T21:19:24.290Z,23.77
2018-09-18T21:21:53.496Z,23.74
2018-09-18T21:24:22.567Z,23.71
2018-09-18T21:26:51.628Z,23.69
2018-09-18T21:29:21.428Z,23.68
2018-09-18T21:31:50.577Z,23.67
2018-09-18T21:34:19.819Z,23.66
2018-09-18T21:36:50.175Z,23.64
2018-09-18T21:39:19.528Z,23.62
2018-09-18T21:41:52.836Z,23.59
2018-09-18T21:44:21.825Z,23.57
2018-09-18T21:46:51.230Z,23.53
2018-09-18T21:49:20.685Z,23.50
2018-09-18T21:51:49.684Z,23.47
2018-09-18T21:54:20.518Z,23.43
2018-09-18T21:56:50.725Z,23.38
2018-09-18T21:59:22.760Z,23.35
2018-09-18T22:01:51.923Z,23.32
2018-09-18T22:04:21.168Z,23.31
2018-09-18T22:06:54.233Z,23.29
2018-09-18T22:09:23.291Z,23.30
2018-09-18T22:11:52.367Z,23.29
2018-09-18T22:14:21.865Z,23.29
2018-09-18T22:16:51.069Z,23.29
2018-09-18T22:19:20.173Z,23.29
2018-09-18T22:21:49.333Z,23.30
2018-09-18T22:24:18.614Z,23.30
2018-09-18T22:26:47.933Z,23.31
2018-09-18T22:29:17.492Z,23.31
2018-09-18T22:31:47.273Z,23.29
2018-09-18T22:34:16.590Z,23.29
2018-09-18T22:36:46.919Z,23.28
2018-09-18T22:39:16.273Z,23.26
2018-09-18T22:41:46.796Z,23.24
2018-09-18T22:44:16.074Z,23.21
2018-09-18T22:46:45.405Z,23.20
2018-09-18T22:49:14.659Z,23.17
2018-09-18T22:51:44.879Z,23.13
2018-09-18T22:54:14.402Z,23.10
2018-09-18T22:56:43.944Z,23.05
2018-09-18T22:59:14.469Z,23.02
2018-09-18T23:01:45.669Z,22.99
2018-09-18T23:04:15.546Z,22.95
2018-09-18T23:06:45.030Z,22.90
2018-09-18T23:09:15.150Z,22.86
2018-09-18T23:11:45.497Z,22.80
2018-09-18T23:14:14.779Z,22.74
2018-09-18T23:16:44.395Z,22.68
2018-09-18T23:19:14.334Z,22.64
2018-09-18T23:21:45.475Z,22.60
2018-09-18T23:24:14.933Z,22.55
2018-09-18T23:26:45.026Z,22.49
2018-09-18T23:29:14.345Z,22.44
2018-09-18T23:31:43.790Z,22.39
2018-09-18T23:34:13.299Z,22.33
2018-09-18T23:36:42.998Z,22.30
2018-09-18T23:39:12.504Z,22.28
2018-09-18T23:41:41.822Z,22.25
2018-09-18T23:44:11.040Z,22.22
2018-09-18T23:46:40.340Z,22.16
2018-09-18T23:49:09.940Z,22.14
2018-09-18T23:51:39.225Z,22.10
2018-09-18T23:54:08.799Z,22.09
2018-09-18T23:56:38.003Z,22.05
2018-09-18T23:59:07.753Z,22.02
